createdAt,value
2023-05-16T00:00:10.981Z,100241.13
2023-05-16T00:05:14.767Z,100236.28
2023-05-16T00:10:16.064Z,100231.00
2023-05-16T00:15:17.260Z,100232.78
2023-05-16T00:20:23.254Z,100232.41
2023-05-16T00:25:24.598Z,100243.13
2023-05-16T00:30:26.041Z,100235.34
2023-05-16T00:35:27.373Z,100232.81
2023-05-16T00:40:28.744Z,100232.22
2023-05-16T00:45:30.265Z,100234.34
2023-05-16T00:50:31.557Z,100236.50
2023-05-16T00:55:32.804Z,100235.34
2023-05-16T01:00:34.106Z,100229.31
2023-05-16T01:05:35.291Z,100233.94
2023-05-16T01:10:36.521Z,100243.28
2023-05-16T01:15:37.887Z,100245.41
2023-05-16T01:20:39.125Z,100245.97
2023-05-16T01:25:40.385Z,100252.22
2023-05-16T01:30:41.695Z,100256.75
2023-05-16T01:35:42.936Z,100254.69
2023-05-16T01:40:44.067Z,100265.16
2023-05-16T01:45:45.296Z,100269.88
2023-05-16T01:50:46.543Z,100276.16
2023-05-16T01:55:47.992Z,100282.22
2023-05-16T02:00:49.303Z,100284.97
2023-05-16T02:05:50.482Z,100298.09
2023-05-16T02:10:51.637Z,100297.94
2023-05-16T02:15:53.040Z,100304.59
2023-05-16T02:20:54.217Z,100312.03
2023-05-16T02:25:55.625Z,100314.94
2023-05-16T02:30:57.496Z,100328.78
2023-05-16T02:35:58.820Z,100339.59
2023-05-16T02:41:00.047Z,100341.78
2023-05-16T02:46:01.504Z,100351.84
2023-05-16T02:51:02.738Z,100359.81
2023-05-16T02:56:06.904Z,100370.88
2023-05-16T03:01:08.208Z,100381.22
2023-05-16T03:06:09.503Z,100380.75
2023-05-16T03:11:11.118Z,100381.31
2023-05-16T03:16:12.339Z,100389.94
2023-05-16T03:21:13.610Z,100388.91
2023-05-16T03:26:14.818Z,100393.31
2023-05-16T03:31:16.295Z,100395.72
2023-05-16T03:36:17.484Z,100403.59
2023-05-16T03:41:18.788Z,100407.22
2023-05-16T03:46:20.007Z,100407.00
2023-05-16T03:51:21.629Z,100407.31
2023-05-16T03:56:23.003Z,100416.19
2023-05-16T04:01:24.166Z,100426.16
2023-05-16T04:06:25.795Z,100430.44
2023-05-16T04:11:27.235Z,100437.47
2023-05-16T04:16:28.569Z,100446.34
2023-05-16T04:21:29.780Z,100448.19
2023-05-16T04:26:31.854Z,100449.75
2023-05-16T04:31:33.120Z,100451.16
2023-05-16T04:36:35.386Z,100461.63
2023-05-16T04:41:36.599Z,100469.50
2023-05-16T04:46:37.896Z,100483.88
2023-05-16T04:51:39.107Z,100485.94
2023-05-16T04:56:40.513Z,100500.63
2023-05-16T05:01:42.005Z,100513.22
2023-05-16T05:06:43.556Z,100513.22
2023-05-16T05:11:44.862Z,100521.06
2023-05-16T05:16:46.155Z,100532.84
2023-05-16T05:21:47.323Z,100533.13
2023-05-16T05:26:48.568Z,100538.88
2023-05-16T05:31:49.827Z,100548.34
2023-05-16T05:36:51.064Z,100561.72
2023-05-16T05:41:52.267Z,100565.16
2023-05-16T05:46:53.580Z,100570.41
2023-05-16T05:51:54.887Z,100583.47
2023-05-16T05:56:56.048Z,100584.50
2023-05-16T06:01:58.024Z,100586.06
2023-05-16T06:06:59.254Z,100587.88
2023-05-16T06:12:00.622Z,100599.66
2023-05-16T06:17:01.895Z,100601.19
2023-05-16T06:22:03.166Z,100611.16
2023-05-16T06:27:04.412Z,100604.31
2023-05-16T06:32:05.782Z,100617.38
2023-05-16T06:37:06.980Z,100619.44
2023-05-16T06:42:08.222Z,100609.69
2023-05-16T06:47:09.413Z,100618.38
2023-05-16T06:52:11.472Z,100623.06
2023-05-16T06:57:13.395Z,100625.59
2023-05-16T07:02:14.638Z,100628.13
2023-05-16T07:07:16.188Z,100626.31
2023-05-16T07:12:17.601Z,100638.13
2023-05-16T07:17:18.865Z,100643.84
2023-05-16T07:22:20.229Z,100639.78
2023-05-16T07:27:23.573Z,100640.19
2023-05-16T07:32:25.051Z,100647.34
2023-05-16T07:37:26.265Z,100652.22
2023-05-16T07:42:27.475Z,100648.69
2023-05-16T07:47:29.142Z,100661.50
2023-05-16T07:52:30.574Z,100657.78
2023-05-16T07:57:31.847Z,100655.56
2023-05-16T08:02:33.137Z,100654.94
2023-05-16T08:07:34.477Z,100656.06
2023-05-16T08:12:35.763Z,100658.72
2023-05-16T08:17:37.474Z,100652.91
2023-05-16T08:22:38.713Z,100659.97
2023-05-16T08:27:40.320Z,100660.78
2023-05-16T08:32:41.586Z,100661.78
2023-05-16T08:37:42.801Z,100663.50
2023-05-16T08:42:45.407Z,100664.81
2023-05-16T08:47:46.816Z,100670.56
2023-05-16T08:52:48.131Z,100673.28
2023-05-16T08:57:49.351Z,100674.22
2023-05-16T09:02:50.871Z,100660.75
2023-05-16T09:07:52.207Z,100656.47
2023-05-16T09:12:53.441Z,100660.56
2023-05-16T09:17:54.730Z,100649.72
2023-05-16T09:22:56.067Z,100663.19
2023-05-16T09:27:57.248Z,100663.16
2023-05-16T09:32:59.225Z,100661.41
2023-05-16T09:38:00.841Z,100661.53
2023-05-16T09:43:02.102Z,100663.53
2023-05-16T09:48:03.517Z,100668.56
2023-05-16T09:53:04.753Z,100671.78
2023-05-16T09:58:06.064Z,100668.31
2023-05-16T10:03:07.462Z,100663.84
2023-05-16T10:08:08.742Z,100665.22
2023-05-16T10:13:09.978Z,100661.72
2023-05-16T10:18:13.290Z,100662.97
2023-05-16T10:23:14.755Z,100674.22
2023-05-16T10:28:16.458Z,100665.03
2023-05-16T10:33:17.782Z,100659.44
2023-05-16T10:38:19.248Z,100658.00
2023-05-16T10:43:20.594Z,100651.69
2023-05-16T10:48:21.922Z,100669.28
2023-05-16T10:53:23.267Z,100648.50
2023-05-16T10:58:24.508Z,100653.97
2023-05-16T11:03:28.172Z,100650.06
2023-05-16T11:08:29.733Z,100647.09
2023-05-16T11:13:30.918Z,100638.63
2023-05-16T11:18:32.246Z,100654.66
2023-05-16T11:23:33.580Z,100652.28
2023-05-16T11:28:34.970Z,100652.19
2023-05-16T11:33:37.047Z,100661.47
2023-05-16T11:38:43.294Z,100659.97
2023-05-16T11:43:45.052Z,100664.34
2023-05-16T11:48:47.264Z,100668.31
2023-05-16T11:53:49.810Z,100669.16
2023-05-16T11:58:51.224Z,100671.13
2023-05-16T12:03:53.160Z,100658.41
2023-05-16T12:08:54.509Z,100658.38
2023-05-16T12:13:55.937Z,100671.19
2023-05-16T12:18:57.150Z,100672.63
2023-05-16T12:24:01.474Z,100661.94
2023-05-16T12:29:06.066Z,100646.19
2023-05-16T12:34:07.318Z,100637.59
2023-05-16T12:39:09.617Z,100654.31
2023-05-16T12:44:11.960Z,100665.94
2023-05-16T12:49:13.706Z,100658.00
2023-05-16T12:54:14.986Z,100657.50
2023-05-16T12:59:16.655Z,100669.81
2023-05-16T13:04:20.152Z,100674.88
2023-05-16T13:09:21.800Z,100671.94
2023-05-16T13:14:23.052Z,100675.41
2023-05-16T13:19:24.640Z,100663.81
2023-05-16T13:24:26.080Z,100664.25
2023-05-16T13:29:27.327Z,100658.34
2023-05-16T13:34:28.585Z,100658.97
2023-05-16T13:39:29.757Z,100663.78
2023-05-16T13:44:31.138Z,100652.28
2023-05-16T13:49:32.389Z,100663.19
2023-05-16T13:54:33.646Z,100656.47
2023-05-16T14:04:39.032Z,100661.16
2023-05-16T14:09:42.504Z,100661.97
2023-05-16T14:14:43.921Z,100657.53
2023-05-16T14:19:45.751Z,100666.59
2023-05-16T14:24:47.049Z,100646.63
2023-05-16T14:29:48.917Z,100649.16
2023-05-16T14:34:50.191Z,100661.47
2023-05-16T14:39:52.843Z,100655.69
2023-05-16T14:44:54.114Z,100657.56
2023-05-16T14:49:56.222Z,100663.16
2023-05-16T14:54:57.554Z,100661.63
2023-05-16T14:59:58.751Z,100675.19
2023-05-16T15:05:00.084Z,100680.63
2023-05-16T15:10:01.841Z,100670.84
2023-05-16T15:15:03.067Z,100680.63
2023-05-16T15:20:04.402Z,100693.19
2023-05-16T15:25:05.816Z,100686.63
2023-05-16T15:30:07.033Z,100690.94
2023-05-16T15:35:08.256Z,100708.56
2023-05-16T15:40:09.712Z,100708.91
2023-05-16T15:45:11.544Z,100712.97
2023-05-16T15:50:13.502Z,100705.16
2023-05-16T15:55:15.165Z,100709.72
2023-05-16T16:00:16.395Z,100713.16
2023-05-16T16:05:17.710Z,100713.56
2023-05-16T16:10:19.932Z,100723.19
2023-05-16T16:15:22.509Z,100726.34
2023-05-16T16:20:23.834Z,100738.75
2023-05-16T16:25:25.158Z,100736.94
2023-05-16T16:30:26.867Z,100736.22
2023-05-16T16:35:28.581Z,100734.41
2023-05-16T16:40:30.032Z,100738.53
2023-05-16T16:45:31.625Z,100747.44
2023-05-16T16:50:34.286Z,100748.81
2023-05-16T16:55:38.188Z,100759.75
2023-05-16T17:00:40.766Z,100756.91
2023-05-16T17:05:43.314Z,100762.88
2023-05-16T17:10:44.560Z,100762.69
2023-05-16T17:15:45.911Z,100768.00
2023-05-16T17:20:47.138Z,100777.59
2023-05-16T17:25:48.366Z,100785.34
2023-05-16T17:30:49.589Z,100790.94
2023-05-16T17:35:51.084Z,100799.81
2023-05-16T17:40:52.863Z,100800.00
2023-05-16T17:45:54.058Z,100805.19
2023-05-16T17:50:55.260Z,100799.13
2023-05-16T17:55:56.710Z,100816.78
2023-05-16T18:00:58.042Z,100802.78
2023-05-16T18:05:59.348Z,100802.88
2023-05-16T18:11:01.654Z,100822.56
2023-05-16T18:16:03.840Z,100817.09
2023-05-16T18:21:06.191Z,100818.16
2023-05-16T18:26:07.879Z,100827.63
2023-05-16T18:31:09.101Z,100822.75
2023-05-16T18:36:10.448Z,100784.75
2023-05-16T18:41:11.615Z,100825.00
2023-05-16T18:46:12.881Z,100825.59
2023-05-16T18:51:14.099Z,100831.81
2023-05-16T18:56:15.273Z,100828.97
2023-05-16T19:01:16.711Z,100836.78
2023-05-16T19:06:17.956Z,100837.63
2023-05-16T19:11:19.307Z,100839.63
2023-05-16T19:16:20.599Z,100840.84
2023-05-16T19:21:21.861Z,100851.84
2023-05-16T19:26:23.098Z,100862.09
2023-05-16T19:31:24.301Z,100866.13
2023-05-16T19:36:25.564Z,100866.13
2023-05-16T19:41:27.487Z,100869.56
2023-05-16T19:46:28.732Z,100874.09
2023-05-16T19:51:40.869Z,100883.09
2023-05-16T19:56:43.374Z,100872.63
2023-05-16T20:01:44.948Z,100881.63
2023-05-16T20:06:46.869Z,100891.09
2023-05-16T20:11:48.056Z,100885.91
2023-05-16T20:16:49.228Z,100881.16
2023-05-16T20:21:50.466Z,100888.03
2023-05-16T20:26:51.654Z,100900.97
2023-05-16T20:31:52.903Z,100898.63
2023-05-16T20:36:54.223Z,100907.66
2023-05-16T20:41:55.555Z,100904.31
2023-05-16T20:46:57.168Z,100904.31
2023-05-16T20:51:58.445Z,100905.94
2023-05-16T20:56:59.750Z,100908.91
2023-05-16T21:02:01.012Z,100915.03
2023-05-16T21:07:02.243Z,100915.47
2023-05-16T21:12:03.473Z,100914.00
2023-05-16T21:17:04.683Z,100916.66
2023-05-16T21:22:05.964Z,100908.56
2023-05-16T21:27:07.204Z,100910.03
2023-05-16T21:32:09.170Z,100905.34
2023-05-16T21:37:11.737Z,100904.88
2023-05-16T21:42:12.979Z,100911.25
2023-05-16T21:47:14.169Z,100903.94
2023-05-16T21:52:15.592Z,100913.69
2023-05-16T21:57:16.777Z,100925.22
2023-05-16T22:02:22.569Z,100923.91
2023-05-16T22:07:26.116Z,100928.59
2023-05-16T22:12:27.369Z,100923.16
2023-05-16T22:17:28.665Z,100921.34
2023-05-16T22:22:29.934Z,100925.06
2023-05-16T22:27:31.180Z,100930.09
2023-05-16T22:32:32.466Z,100930.66
2023-05-16T22:37:33.829Z,100928.31
2023-05-16T22:42:35.039Z,100935.94
2023-05-16T22:47:36.350Z,100949.09
2023-05-16T22:52:41.195Z,100949.38
2023-05-16T22:57:42.811Z,100944.13
2023-05-16T23:02:44.101Z,100951.22
2023-05-16T23:07:45.614Z,100953.56
2023-05-16T23:12:47.032Z,100963.81
2023-05-16T23:17:48.301Z,100964.59
2023-05-16T23:22:49.600Z,100965.38
2023-05-16T23:27:50.858Z,100964.06
2023-05-16T23:32:52.158Z,100963.81
2023-05-16T23:37:53.463Z,100973.47
2023-05-16T23:42:54.648Z,100972.94
2023-05-16T23:47:55.951Z,100976.84
2023-05-16T23:52:57.285Z,100981.28
2023-05-16T23:57:58.649Z,100984.66
